Last 30 Days

AM-Scott Top 8120'

Daily Data | America/Los_Angeles
as of 1/23/22 3:37 AM PST
Date Daily Max Temp (°F) Time of Max Temp Daily Min Temp (°F) Time of Min Temp Wind Spd (mph) Wind Gust (mph) Wind Gst Dir (°) Wind Gst Time Wet Bulb (°F) WetB Hrs <28F (hrs) Max RH (%) Min RH (%) Bat Volt Min Day (V)
1/22/22 31.4 1521 18.4 0500 11.9 33.1 ESE | 113 1008 21.5 24.0 91 58 11.3
1/21/22 35.0 0001 20.6 2355 11.6 34.3 E | 101 1907 22.3 24.0 88 34 11.3
1/20/22 48.4 1356 29.9 0013 5.7 18.7 ESE | 123 0518 31.8 6.5 77 35 11.3
1/19/22 40.9 1232 27.6 0755 5.5 23.0 SE | 126 2202 27.7 16.8 82 42 11.3
1/18/22 45.3 1402 30.8 2358 3.6 11.5 NE | 35 2151 29.4 10.5 70 38 11.3
1/17/22 40.1 1250 32.0 1946 4.1 16.9 NW | 308 1312 29.2 8.8 81 31 11.3
1/16/22 44.7 1206 34.9 2357 6.1 24.6 WSW | 243 1419 29.2 6.9 52 8 11.4
1/15/22 50.2 1132 31.4 0215 2.2 16.2 SE | 126 0001 28.0 15.7 52 7 11.3
1/14/22 39.5 0003 25.8 0727 7.5 26.2 E | 98 0722 26.9 18.0 96 18 11.3
1/13/22 43.0 0036 34.7 2243 19.6 56.4 WSW | 239 0933 28.0 14.3 44 18 11.3
1/12/22 58.2 1224 38.5 2349 6.8 28.5 SW | 217 1959 34.7 0.0 37 15 11.4
1/11/22 51.7 1116 33.7 0104 3.5 18.5 ESE | 119 2104 31.9 0.1 58 27 11.3
1/10/22 44.5 1349 28.5 0423 5.4 25.6 WSW | 238 0313 27.0 15.3 63 25 11.3
1/9/22 43.2 1322 22.6 0123 4.4 17.3 WSW | 240 2354 24.8 19.3 82 20 11.3
1/8/22 34.8 1309 19.9 0124 4.7 21.6 E | 99 1942 22.5 24.0 97 39 11.3
1/7/22 33.0 0001 22.2 2354 19.5 61.2 WSW | 255 0222 27.0 13.8 98 82 11.3
1/6/22 39.8 1410 32.6 2347 16.0 42.7 SW | 230 2226 35.1 0.0 97 70 11.4
1/5/22 40.8 2031 28.0 0220 3.1 17.5 NNE | 30 1356 33.4 0.0 100 61 11.3
1/4/22 29.8 2105 27.2 0004 16.0 52.8 SW | 214 0048 28.4 4.0 99 98 11.3
1/3/22 27.4 2249 20.7 0223 35.3 72.9 WSW | 240 1835 20.5 24.0 98 36 11.3
1/2/22 28.4 1426 21.6 2348 24.8 53.3 WSW | 246 2341 20.4 9.6 71 42 11.3
1/1/22 28.1 1401 7.3 0116 2.1 14.3 WSW | 245 2337 19.1 24.0 97 88 11.3
12/31/21 21.5 1120 8.7 2359 3.2 12.5 SW | 222 0030 16.6 24.0 97 93 11.3
12/30/21 23.9 1217 18.6 0509 6.3 16.6 SW | 231 1419 21.0 24.0 98 96 11.3
12/29/21 21.6 1121 18.7 0403 7.0 21.2 SSW | 210 0920 19.7 24.0 97 96 11.3
12/28/21 19.5 1307 12.6 0741 9.2 30.2 SSW | 211 0238 15.7 24.0 96 94 11.3
12/27/21 17.6 0514 11.8 1931 9.6 56.6 SSW | 202 1316 15.0 24.0 96 94 11.3
12/26/21 15.3 2356 9.3 0740 10.2 61.9 S | 189 0108 12.4 24.0 95 93 11.3
12/25/21 21.3 1503 14.2 2345 23.0 53.8 SW | 225 2206 18.7 12.9 97 95 11.3
12/24/21 26.1 1105 18.1 1536 20.0 49.7 S | 182 1111 20.1 13.0 99 96 11.3
Max 58.2 - 38.5 - 35.3 72.9 - - 35.1 24.0 100 98 11.4
Avg - - - - 10.3 33.0 - - 24.6 - - - -
Min 15.3 - 7.3 - 2.1 11.5 - - 12.4 0.0 37 7 11.3